sensor_id;sensor_type;location;lat;lon;timestamp;pressure;altitude;pressure_sealevel;temperature;humidity
26087;BME280;13851;43.434;28.338;2023-04-10T00:00:59;100120.00;;;10.22;100.00
26087;BME280;13851;43.434;28.338;2023-04-10T00:03:26;100123.78;;;10.21;100.00
26087;BME280;13851;43.434;28.338;2023-04-10T00:05:52;99993.38;;;9.48;100.00
26087;BME280;13851;43.434;28.338;2023-04-10T00:08:23;100105.50;;;10.13;100.00
26087;BME280;13851;43.434;28.338;2023-04-10T00:10:48;100099.50;;;10.02;100.00
26087;BME280;13851;43.434;28.338;2023-04-10T00:13:14;100084.63;;;9.96;100.00
26087;BME280;13851;43.434;28.338;2023-04-10T00:15:40;100117.31;;;10.14;100.00
26087;BME280;13851;43.434;28.338;2023-04-10T00:18:06;99731.28;;;7.84;100.00
26087;BME280;13851;43.434;28.338;2023-04-10T00:20:32;100122.44;;;9.84;100.00
26087;BME280;13851;43.434;28.338;2023-04-10T00:22:57;100084.44;;;9.98;100.00
26087;BME280;13851;43.434;28.338;2023-04-10T00:25:23;100082.25;;;9.93;100.00
26087;BME280;13851;43.434;28.338;2023-04-10T00:27:48;100057.09;;;9.81;100.00
26087;BME280;13851;43.434;28.338;2023-04-10T00:30:14;100096.94;;;10.08;100.00
26087;BME280;13851;43.434;28.338;2023-04-10T00:32:40;100096.75;;;10.02;100.00
26087;BME280;13851;43.434;28.338;2023-04-10T00:35:06;99995.59;;;9.45;100.00
26087;BME280;13851;43.434;28.338;2023-04-10T00:37:32;100096.94;;;10.08;100.00
26087;BME280;13851;43.434;28.338;2023-04-10T00:39:58;100090.09;;;10.04;100.00
26087;BME280;13851;43.434;28.338;2023-04-10T00:42:23;100091.13;;;10.03;100.00
26087;BME280;13851;43.434;28.338;2023-04-10T00:44:49;100033.88;;;9.69;100.00
26087;BME280;13851;43.434;28.338;2023-04-10T00:47:15;100082.56;;;10.06;100.00
26087;BME280;13851;43.434;28.338;2023-04-10T00:49:41;100076.94;;;10.00;100.00
26087;BME280;13851;43.434;28.338;2023-04-10T00:52:08;100096.75;;;10.02;100.00
26087;BME280;13851;43.434;28.338;2023-04-10T00:54:36;100076.94;;;10.00;100.00
26087;BME280;13851;43.434;28.338;2023-04-10T00:57:03;100081.56;;;9.99;100.00
26087;BME280;13851;43.434;28.338;2023-04-10T00:59:32;100122.44;;;10.01;100.00
26087;BME280;13851;43.434;28.338;2023-04-10T01:01:58;100088.91;;;9.99;100.00
26087;BME280;13851;43.434;28.338;2023-04-10T01:04:27;100075.06;;;9.92;100.00
26087;BME280;13851;43.434;28.338;2023-04-10T01:10:00;100061.56;;;9.90;100.00
26087;BME280;13851;43.434;28.338;2023-04-10T01:15:12;100059.84;;;9.89;100.00
26087;BME280;13851;43.434;28.338;2023-04-10T01:17:55;100061.56;;;9.90;100.00
26087;BME280;13851;43.434;28.338;2023-04-10T01:20:22;100062.06;;;9.94;100.00
26087;BME280;13851;43.434;28.338;2023-04-10T01:23:08;100018.84;;;9.65;100.00
26087;BME280;13851;43.434;28.338;2023-04-10T01:25:55;100016.75;;;9.67;100.00
26087;BME280;13851;43.434;28.338;2023-04-10T01:31:07;100051.66;;;9.65;100.00
26087;BME280;13851;43.434;28.338;2023-04-10T01:33:47;99693.75;;;7.69;100.00
26087;BME280;13851;43.434;28.338;2023-04-10T01:36:25;100043.28;;;9.83;100.00
26087;BME280;13851;43.434;28.338;2023-04-10T01:38:53;100047.19;;;9.72;100.00
26087;BME280;13851;43.434;28.338;2023-04-10T01:41:21;99867.53;;;8.60;100.00
26087;BME280;13851;43.434;28.338;2023-04-10T01:43:49;100054.72;;;9.70;100.00
26087;BME280;13851;43.434;28.338;2023-04-10T01:46:18;100059.88;;;9.73;100.00
26087;BME280;13851;43.434;28.338;2023-04-10T01:48:45;100096.09;;;9.59;100.00
26087;BME280;13851;43.434;28.338;2023-04-10T01:51:12;100103.28;;;9.60;100.00
26087;BME280;13851;43.434;28.338;2023-04-10T01:53:40;100027.38;;;9.46;100.00
26087;BME280;13851;43.434;28.338;2023-04-10T01:56:07;100055.59;;;9.62;100.00
26087;BME280;13851;43.434;28.338;2023-04-10T01:58:34;99765.03;;;7.91;100.00
26087;BME280;13851;43.434;28.338;2023-04-10T02:00:59;100075.25;;;9.66;100.00
26087;BME280;13851;43.434;28.338;2023-04-10T02:03:26;100102.94;;;9.63;100.00
26087;BME280;13851;43.434;28.338;2023-04-10T02:08:54;100080.53;;;9.59;100.00
26087;BME280;13851;43.434;28.338;2023-04-10T02:11:14;100095.44;;;9.73;100.00
26087;BME280;13851;43.434;28.338;2023-04-10T02:13:42;100053.69;;;9.71;100.00
26087;BME280;13851;43.434;28.338;2023-04-10T02:16:07;100059.69;;;9.67;100.00
26087;BME280;13851;43.434;28.338;2023-04-10T02:18:35;100063.63;;;9.40;100.00
26087;BME280;13851;43.434;28.338;2023-04-10T02:21:01;99698.16;;;7.54;100.00
26087;BME280;13851;43.434;28.338;2023-04-10T02:23:29;100053.69;;;9.71;100.00
26087;BME280;13851;43.434;28.338;2023-04-10T02:25:55;100048.94;;;9.73;100.00
26087;BME280;13851;43.434;28.338;2023-04-10T02:28:23;100053.19;;;9.76;100.00
26087;BME280;13851;43.434;28.338;2023-04-10T02:30:50;99962.28;;;9.25;100.00
26087;BME280;13851;43.434;28.338;2023-04-10T02:33:15;100047.72;;;9.76;100.00
26087;BME280;13851;43.434;28.338;2023-04-10T02:35:41;100017.63;;;9.51;100.00
26087;BME280;13851;43.434;28.338;2023-04-10T02:38:09;100016.81;;;9.43;100.00
26087;BME280;13851;43.434;28.338;2023-04-10T02:40:35;100034.91;;;9.68;100.00
26087;BME280;13851;43.434;28.338;2023-04-10T02:43:01;100040.53;;;9.75;100.00
26087;BME280;13851;43.434;28.338;2023-04-10T02:45:27;100038.13;;;9.80;100.00
26087;BME280;13851;43.434;28.338;2023-04-10T02:47:52;100080.69;;;9.82;100.00
26087;BME280;13851;43.434;28.338;2023-04-10T02:50:18;99684.06;;;7.75;100.00
26087;BME280;13851;43.434;28.338;2023-04-10T02:52:43;100045.16;;;9.74;100.00
26087;BME280;13851;43.434;28.338;2023-04-10T02:55:09;99743.75;;;8.27;100.00
26087;BME280;13851;43.434;28.338;2023-04-10T02:57:35;100019.66;;;9.98;100.00
26087;BME280;13851;43.434;28.338;2023-04-10T03:00:01;100011.91;;;10.10;100.00
26087;BME280;13851;43.434;28.338;2023-04-10T03:02:27;99434.13;;;6.77;100.00
26087;BME280;13851;43.434;28.338;2023-04-10T03:04:52;99817.41;;;9.33;100.00
26087;BME280;13851;43.434;28.338;2023-04-10T03:07:18;99984.81;;;10.39;100.00
26087;BME280;13851;43.434;28.338;2023-04-10T03:09:43;100016.44;;;10.42;100.00
26087;BME280;13851;43.434;28.338;2023-04-10T03:12:09;100017.28;;;10.82;100.00
26087;BME280;13851;43.434;28.338;2023-04-10T03:14:34;100063.81;;;10.90;100.00
26087;BME280;13851;43.434;28.338;2023-04-10T03:16:59;99647.09;;;8.93;100.00
26087;BME280;13851;43.434;28.338;2023-04-10T03:19:25;99996.16;;;10.59;100.00
26087;BME280;13851;43.434;28.338;2023-04-10T03:21:51;100045.00;;;11.18;100.00
26087;BME280;13851;43.434;28.338;2023-04-10T03:24:16;99985.84;;;11.01;100.00
26087;BME280;13851;43.434;28.338;2023-04-10T03:26:42;99987.22;;;10.97;100.00
26087;BME280;13851;43.434;28.338;2023-04-10T03:29:07;99951.13;;;10.62;100.00
26087;BME280;13851;43.434;28.338;2023-04-10T03:31:33;100028.78;;;11.08;100.00
26087;BME280;13851;43.434;28.338;2023-04-10T03:33:58;99645.31;;;9.08;100.00
26087;BME280;13851;43.434;28.338;2023-04-10T03:36:24;99633.94;;;8.97;100.00
26087;BME280;13851;43.434;28.338;2023-04-10T03:38:49;100005.75;;;11.17;100.00
26087;BME280;13851;43.434;28.338;2023-04-10T03:41:17;100013.16;;;11.09;100.00
26087;BME280;13851;43.434;28.338;2023-04-10T03:43:42;99942.25;;;10.60;100.00
26087;BME280;13851;43.434;28.338;2023-04-10T03:46:07;100033.13;;;10.94;100.00
26087;BME280;13851;43.434;28.338;2023-04-10T03:48:33;99984.00;;;10.62;100.00
26087;BME280;13851;43.434;28.338;2023-04-10T03:50:58;99941.69;;;10.33;100.00
26087;BME280;13851;43.434;28.338;2023-04-10T03:53:24;99968.13;;;10.49;100.00
26087;BME280;13851;43.434;28.338;2023-04-10T03:55:50;99954.53;;;10.33;100.00
26087;BME280;13851;43.434;28.338;2023-04-10T03:58:17;100002.81;;;10.26;100.00
26087;BME280;13851;43.434;28.338;2023-04-10T04:00:43;100014.34;;;10.52;100.00
26087;BME280;13851;43.434;28.338;2023-04-10T04:03:09;100015.56;;;10.50;100.00
26087;BME280;13851;43.434;28.338;2023-04-10T04:05:35;99969.22;;;9.84;100.00
26087;BME280;13851;43.434;28.338;2023-04-10T04:08:00;99964.41;;;9.86;100.00
26087;BME280;13851;43.434;28.338;2023-04-10T04:10:27;99624.22;;;8.14;100.00
26087;BME280;13851;43.434;28.338;2023-04-10T04:12:53;100010.00;;;10.19;100.00
26087;BME280;13851;43.434;28.338;2023-04-10T04:15:21;100021.66;;;10.29;100.00
26087;BME280;13851;43.434;28.338;2023-04-10T04:17:48;100004.34;;;10.28;100.00
26087;BME280;13851;43.434;28.338;2023-04-10T04:20:14;100004.00;;;10.31;100.00
26087;BME280;13851;43.434;28.338;2023-04-10T04:22:40;99979.72;;;10.20;100.00
26087;BME280;13851;43.434;28.338;2023-04-10T04:25:09;99996.81;;;10.30;100.00
26087;BME280;13851;43.434;28.338;2023-04-10T04:27:36;100021.50;;;10.14;100.00
26087;BME280;13851;43.434;28.338;2023-04-10T04:30:05;99993.69;;;10.41;100.00
26087;BME280;13851;43.434;28.338;2023-04-10T04:32:31;100007.69;;;10.47;100.00
26087;BME280;13851;43.434;28.338;2023-04-10T04:34:56;99959.06;;;10.01;100.00
26087;BME280;13851;43.434;28.338;2023-04-10T04:37:22;100011.09;;;10.57;100.00
26087;BME280;13851;43.434;28.338;2023-04-10T04:39:47;100028.72;;;10.54;100.00
26087;BME280;13851;43.434;28.338;2023-04-10T04:42:13;99928.94;;;10.09;100.00
26087;BME280;13851;43.434;28.338;2023-04-10T04:44:38;99716.94;;;8.88;100.00
26087;BME280;13851;43.434;28.338;2023-04-10T04:47:04;99642.94;;;8.58;100.00
26087;BME280;13851;43.434;28.338;2023-04-10T04:49:30;99764.56;;;9.41;100.00
26087;BME280;13851;43.434;28.338;2023-04-10T04:51:55;99878.84;;;10.09;100.00
26087;BME280;13851;43.434;28.338;2023-04-10T04:54:21;99955.97;;;10.52;100.00
26087;BME280;13851;43.434;28.338;2023-04-10T04:56:46;100060.47;;;11.11;100.00
26087;BME280;13851;43.434;28.338;2023-04-10T04:59:12;99920.69;;;10.80;100.00
26087;BME280;13851;43.434;28.338;2023-04-10T05:01:37;99853.72;;;10.59;100.00
26087;BME280;13851;43.434;28.338;2023-04-10T05:04:03;100031.09;;;11.42;100.00
26087;BME280;13851;43.434;28.338;2023-04-10T05:06:28;99647.47;;;9.52;100.00
26087;BME280;13851;43.434;28.338;2023-04-10T05:08:55;99994.34;;;11.66;100.00
26087;BME280;13851;43.434;28.338;2023-04-10T05:11:21;99873.44;;;11.01;100.00
26087;BME280;13851;43.434;28.338;2023-04-10T05:13:47;99933.53;;;11.63;100.00
26087;BME280;13851;43.434;28.338;2023-04-10T05:16:12;99690.16;;;10.30;100.00
26087;BME280;13851;43.434;28.338;2023-04-10T05:18:38;99622.28;;;10.03;100.00
26087;BME280;13851;43.434;28.338;2023-04-10T05:21:04;99980.06;;;12.23;100.00
26087;BME280;13851;43.434;28.338;2023-04-10T05:23:29;99991.13;;;12.45;100.00
26087;BME280;13851;43.434;28.338;2023-04-10T05:25:55;99682.00;;;10.75;100.00
26087;BME280;13851;43.434;28.338;2023-04-10T05:28:21;99670.78;;;10.84;100.00
26087;BME280;13851;43.434;28.338;2023-04-10T05:30:47;99974.94;;;12.86;100.00
26087;BME280;13851;43.434;28.338;2023-04-10T05:33:12;99895.34;;;12.42;100.00
26087;BME280;13851;43.434;28.338;2023-04-10T05:35:38;100004.59;;;13.27;100.00
26087;BME280;13851;43.434;28.338;2023-04-10T05:38:04;99995.09;;;13.30;100.00
26087;BME280;13851;43.434;28.338;2023-04-10T05:40:32;99954.25;;;13.12;100.00
26087;BME280;13851;43.434;28.338;2023-04-10T05:42:58;100008.00;;;13.29;100.00
26087;BME280;13851;43.434;28.338;2023-04-10T05:45:23;99903.19;;;12.60;100.00
26087;BME280;13851;43.434;28.338;2023-04-10T05:47:49;99609.09;;;10.59;100.00
26087;BME280;13851;43.434;28.338;2023-04-10T05:50:15;100003.59;;;12.77;100.00
26087;BME280;13851;43.434;28.338;2023-04-10T05:52:43;100051.00;;;12.49;100.00
26087;BME280;13851;43.434;28.338;2023-04-10T05:55:10;99984.28;;;12.56;100.00
26087;BME280;13851;43.434;28.338;2023-04-10T05:57:37;99989.31;;;12.52;100.00
26087;BME280;13851;43.434;28.338;2023-04-10T06:00:03;99994.72;;;12.45;100.00
26087;BME280;13851;43.434;28.338;2023-04-10T06:02:29;99919.28;;;11.97;100.00
26087;BME280;13851;43.434;28.338;2023-04-10T06:04:54;99648.09;;;10.23;100.00
26087;BME280;13851;43.434;28.338;2023-04-10T06:07:20;99929.38;;;11.82;100.00
26087;BME280;13851;43.434;28.338;2023-04-10T06:09:45;99969.09;;;12.09;100.00
26087;BME280;13851;43.434;28.338;2023-04-10T06:12:11;99986.41;;;12.24;100.00
26087;BME280;13851;43.434;28.338;2023-04-10T06:14:36;99941.06;;;11.99;100.00
26087;BME280;13851;43.434;28.338;2023-04-10T06:17:02;99576.28;;;9.83;100.00
26087;BME280;13851;43.434;28.338;2023-04-10T06:19:30;99977.91;;;12.19;100.00
26087;BME280;13851;43.434;28.338;2023-04-10T06:21:55;99966.91;;;11.66;100.00
26087;BME280;13851;43.434;28.338;2023-04-10T06:24:21;100010.63;;;12.06;100.00
26087;BME280;13851;43.434;28.338;2023-04-10T06:26:46;99990.28;;;12.15;100.00
26087;BME280;13851;43.434;28.338;2023-04-10T06:29:12;99808.69;;;11.14;100.00
26087;BME280;13851;43.434;28.338;2023-04-10T06:31:37;99993.22;;;11.99;100.00
26087;BME280;13851;43.434;28.338;2023-04-10T06:34:03;99964.44;;;12.09;100.00
26087;BME280;13851;43.434;28.338;2023-04-10T06:36:28;99975.16;;;12.19;100.00
26087;BME280;13851;43.434;28.338;2023-04-10T06:38:54;99973.25;;;12.19;100.00
26087;BME280;13851;43.434;28.338;2023-04-10T06:41:19;99975.44;;;12.24;100.00
26087;BME280;13851;43.434;28.338;2023-04-10T06:43:45;99990.16;;;12.38;100.00
26087;BME280;13851;43.434;28.338;2023-04-10T06:46:11;100001.56;;;12.35;100.00
26087;BME280;13851;43.434;28.338;2023-04-10T06:48:36;99951.38;;;12.11;100.00
26087;BME280;13851;43.434;28.338;2023-04-10T06:51:02;100000.72;;;12.49;100.00
26087;BME280;13851;43.434;28.338;2023-04-10T06:53:28;99966.41;;;12.30;100.00
26087;BME280;13851;43.434;28.338;2023-04-10T06:55:54;100004.03;;;12.44;100.00
26087;BME280;13851;43.434;28.338;2023-04-10T06:58:19;100007.47;;;12.68;100.00
26087;BME280;13851;43.434;28.338;2023-04-10T07:00:45;100015.84;;;12.74;100.00
26087;BME280;13851;43.434;28.338;2023-04-10T07:03:11;99969.56;;;12.63;100.00
26087;BME280;13851;43.434;28.338;2023-04-10T07:05:36;99938.66;;;12.40;100.00
26087;BME280;13851;43.434;28.338;2023-04-10T07:08:02;99990.09;;;12.82;100.00
26087;BME280;13851;43.434;28.338;2023-04-10T07:10:29;99975.19;;;12.70;100.00
26087;BME280;13851;43.434;28.338;2023-04-10T07:12:54;100070.28;;;13.00;100.00
26087;BME280;13851;43.434;28.338;2023-04-10T07:15:21;99691.66;;;11.00;100.00
26087;BME280;13851;43.434;28.338;2023-04-10T07:17:47;99971.09;;;12.66;100.00
26087;BME280;13851;43.434;28.338;2023-04-10T07:20:12;99941.19;;;12.56;100.00
26087;BME280;13851;43.434;28.338;2023-04-10T07:22:38;99692.72;;;11.14;100.00
26087;BME280;13851;43.434;28.338;2023-04-10T07:25:03;100002.72;;;13.13;100.00
26087;BME280;13851;43.434;28.338;2023-04-10T07:27:29;99787.69;;;11.95;100.00
26087;BME280;13851;43.434;28.338;2023-04-10T07:29:55;100042.53;;;13.32;100.00
26087;BME280;13851;43.434;28.338;2023-04-10T07:32:21;100009.84;;;13.43;100.00
26087;BME280;13851;43.434;28.338;2023-04-10T07:34:47;100005.19;;;13.44;100.00
26087;BME280;13851;43.434;28.338;2023-04-10T07:37:15;100044.34;;;13.46;100.00
26087;BME280;13851;43.434;28.338;2023-04-10T07:39:42;100007.66;;;13.60;100.00
26087;BME280;13851;43.434;28.338;2023-04-10T07:42:10;99996.88;;;13.37;100.00
26087;BME280;13851;43.434;28.338;2023-04-10T07:44:35;99991.06;;;13.75;100.00
26087;BME280;13851;43.434;28.338;2023-04-10T07:47:02;99685.84;;;12.12;100.00
26087;BME280;13851;43.434;28.338;2023-04-10T07:49:28;100021.00;;;14.13;100.00
26087;BME280;13851;43.434;28.338;2023-04-10T07:51:53;99639.25;;;11.97;100.00
26087;BME280;13851;43.434;28.338;2023-04-10T07:54:19;100014.34;;;14.35;100.00
26087;BME280;13851;43.434;28.338;2023-04-10T07:56:44;99977.72;;;14.07;100.00
26087;BME280;13851;43.434;28.338;2023-04-10T07:59:10;99979.84;;;14.46;100.00
26087;BME280;13851;43.434;28.338;2023-04-10T08:01:36;100044.63;;;14.63;100.00
26087;BME280;13851;43.434;28.338;2023-04-10T08:04:01;100022.97;;;14.95;100.00
26087;BME280;13851;43.434;28.338;2023-04-10T08:06:27;100000.69;;;14.96;100.00
26087;BME280;13851;43.434;28.338;2023-04-10T08:08:52;100017.06;;;15.18;100.00
26087;BME280;13851;43.434;28.338;2023-04-10T08:13:49;99711.31;;;13.33;100.00
26087;BME280;13851;43.434;28.338;2023-04-10T08:16:17;100018.13;;;15.10;100.00
26087;BME280;13851;43.434;28.338;2023-04-10T08:18:43;100029.56;;;15.07;100.00
26087;BME280;13851;43.434;28.338;2023-04-10T08:21:09;100060.53;;;15.02;100.00
26087;BME280;13851;43.434;28.338;2023-04-10T08:23:34;100028.25;;;14.90;100.00
26087;BME280;13851;43.434;28.338;2023-04-10T08:26:00;100029.97;;;14.97;100.00
26087;BME280;13851;43.434;28.338;2023-04-10T08:28:25;100026.97;;;14.92;100.00
26087;BME280;13851;43.434;28.338;2023-04-10T08:30:53;99764.72;;;13.45;100.00
26087;BME280;13851;43.434;28.338;2023-04-10T08:33:22;99979.78;;;14.74;100.00
26087;BME280;13851;43.434;28.338;2023-04-10T08:35:47;99983.22;;;14.82;100.00
26087;BME280;13851;43.434;28.338;2023-04-10T08:38:13;100016.84;;;15.06;100.00
26087;BME280;13851;43.434;28.338;2023-04-10T08:40:39;99860.88;;;14.29;100.00
26087;BME280;13851;43.434;28.338;2023-04-10T08:43:04;99971.78;;;14.92;100.00
26087;BME280;13851;43.434;28.338;2023-04-10T08:45:30;100008.84;;;15.38;100.00
26087;BME280;13851;43.434;28.338;2023-04-10T08:47:57;100003.75;;;15.54;100.00
26087;BME280;13851;43.434;28.338;2023-04-10T08:50:29;100050.75;;;15.68;100.00
26087;BME280;13851;43.434;28.338;2023-04-10T08:52:57;99946.41;;;15.43;100.00
26087;BME280;13851;43.434;28.338;2023-04-10T08:55:24;100000.00;;;15.82;100.00
26087;BME280;13851;43.434;28.338;2023-04-10T08:57:51;99992.31;;;15.71;100.00
26087;BME280;13851;43.434;28.338;2023-04-10T09:00:17;100036.03;;;15.60;100.00
26087;BME280;13851;43.434;28.338;2023-04-10T09:02:43;99644.06;;;13.42;100.00
26087;BME280;13851;43.434;28.338;2023-04-10T09:05:10;99976.16;;;15.41;100.00
26087;BME280;13851;43.434;28.338;2023-04-10T09:07:37;99978.88;;;15.21;100.00
26087;BME280;13851;43.434;28.338;2023-04-10T09:10:03;100001.00;;;15.41;100.00
26087;BME280;13851;43.434;28.338;2023-04-10T09:12:28;99682.25;;;13.65;100.00
26087;BME280;13851;43.434;28.338;2023-04-10T09:14:55;100033.06;;;15.49;100.00
26087;BME280;13851;43.434;28.338;2023-04-10T09:17:22;99947.66;;;15.27;100.00
26087;BME280;13851;43.434;28.338;2023-04-10T09:19:53;99949.38;;;15.35;100.00
26087;BME280;13851;43.434;28.338;2023-04-10T09:22:32;99977.00;;;15.62;100.00
26087;BME280;13851;43.434;28.338;2023-04-10T09:24:59;99963.84;;;15.83;100.00
26087;BME280;13851;43.434;28.338;2023-04-10T09:27:35;99659.47;;;14.04;100.00
26087;BME280;13851;43.434;28.338;2023-04-10T09:30:05;99984.47;;;15.94;100.00
26087;BME280;13851;43.434;28.338;2023-04-10T09:32:40;99899.69;;;15.88;100.00
26087;BME280;13851;43.434;28.338;2023-04-10T09:35:06;100017.78;;;16.39;100.00
26087;BME280;13851;43.434;28.338;2023-04-10T09:37:34;99889.06;;;15.78;100.00
26087;BME280;13851;43.434;28.338;2023-04-10T09:39:59;99949.66;;;16.51;100.00
26087;BME280;13851;43.434;28.338;2023-04-10T09:42:35;99943.03;;;16.52;100.00
26087;BME280;13851;43.434;28.338;2023-04-10T09:45:05;99950.94;;;16.42;100.00
26087;BME280;13851;43.434;28.338;2023-04-10T09:47:30;99908.13;;;16.06;100.00
26087;BME280;13851;43.434;28.338;2023-04-10T09:49:58;99958.31;;;16.03;100.00
26087;BME280;13851;43.434;28.338;2023-04-10T09:52:33;99620.50;;;14.27;100.00
26087;BME280;13851;43.434;28.338;2023-04-10T09:55:03;99845.13;;;15.64;100.00
26087;BME280;13851;43.434;28.338;2023-04-10T09:57:32;99638.75;;;14.48;100.00
26087;BME280;13851;43.434;28.338;2023-04-10T10:00:00;99942.91;;;16.34;100.00
26087;BME280;13851;43.434;28.338;2023-04-10T10:02:30;99971.84;;;16.38;100.00
26087;BME280;13851;43.434;28.338;2023-04-10T10:04:57;99886.22;;;16.05;100.00
26087;BME280;13851;43.434;28.338;2023-04-10T10:07:26;99629.44;;;14.49;100.00
26087;BME280;13851;43.434;28.338;2023-04-10T10:09:52;99879.28;;;15.89;100.00
26087;BME280;13851;43.434;28.338;2023-04-10T10:12:33;99873.94;;;15.94;100.00
26087;BME280;13851;43.434;28.338;2023-04-10T10:15:04;99910.66;;;16.15;100.00
26087;BME280;13851;43.434;28.338;2023-04-10T10:17:37;99856.75;;;15.85;100.00
26087;BME280;13851;43.434;28.338;2023-04-10T10:20:09;99695.75;;;15.00;100.00
26087;BME280;13851;43.434;28.338;2023-04-10T10:22:36;99898.31;;;16.17;100.00
26087;BME280;13851;43.434;28.338;2023-04-10T10:25:03;99608.22;;;14.49;100.00
26087;BME280;13851;43.434;28.338;2023-04-10T10:27:35;99889.16;;;16.23;100.00
26087;BME280;13851;43.434;28.338;2023-04-10T10:30:08;99676.44;;;14.94;100.00
26087;BME280;13851;43.434;28.338;2023-04-10T10:32:34;99900.00;;;16.25;100.00
26087;BME280;13851;43.434;28.338;2023-04-10T10:35:01;99880.03;;;16.23;100.00
26087;BME280;13851;43.434;28.338;2023-04-10T10:37:29;99862.13;;;16.25;100.00
26087;BME280;13851;43.434;28.338;2023-04-10T10:48:12;99820.19;;;15.90;100.00
26087;BME280;13851;43.434;28.338;2023-04-10T10:50:55;99881.06;;;16.28;100.00
26087;BME280;13851;43.434;28.338;2023-04-10T10:53:42;99921.69;;;16.21;100.00
26087;BME280;13851;43.434;28.338;2023-04-10T11:01:12;99837.03;;;16.27;100.00
26087;BME280;13851;43.434;28.338;2023-04-10T11:03:38;99839.97;;;16.32;100.00
26087;BME280;13851;43.434;28.338;2023-04-10T11:06:06;99900.81;;;16.38;100.00
26087;BME280;13851;43.434;28.338;2023-04-10T11:11:20;99504.72;;;14.47;100.00
26087;BME280;13851;43.434;28.338;2023-04-10T11:16:45;99820.53;;;16.90;100.00
26087;BME280;13851;43.434;28.338;2023-04-10T11:19:11;99890.75;;;17.21;100.00
26087;BME280;13851;43.434;28.338;2023-04-10T11:22:00;99849.69;;;17.42;100.00
26087;BME280;13851;43.434;28.338;2023-04-10T11:24:26;99539.53;;;15.51;100.00
26087;BME280;13851;43.434;28.338;2023-04-10T11:26:55;99581.63;;;16.09;100.00
26087;BME280;13851;43.434;28.338;2023-04-10T11:32:06;99776.28;;;17.70;100.00
26087;BME280;13851;43.434;28.338;2023-04-10T11:34:32;99838.00;;;18.02;100.00
26087;BME280;13851;43.434;28.338;2023-04-10T11:36:59;99833.38;;;18.14;100.00
26087;BME280;13851;43.434;28.338;2023-04-10T11:39:29;99892.97;;;18.24;100.00
26087;BME280;13851;43.434;28.338;2023-04-10T11:41:55;99836.84;;;18.10;100.00
26087;BME280;13851;43.434;28.338;2023-04-10T11:46:50;99813.06;;;17.84;100.00
26087;BME280;13851;43.434;28.338;2023-04-10T11:49:24;99740.00;;;17.41;100.00
26087;BME280;13851;43.434;28.338;2023-04-10T11:51:51;99822.28;;;17.78;100.00
26087;BME280;13851;43.434;28.338;2023-04-10T11:54:18;99573.41;;;16.28;100.00
26087;BME280;13851;43.434;28.338;2023-04-10T11:56:53;99820.41;;;17.72;100.00
26087;BME280;13851;43.434;28.338;2023-04-10T11:59:21;99713.44;;;17.15;100.00
26087;BME280;13851;43.434;28.338;2023-04-10T12:01:47;99818.69;;;17.71;100.00
26087;BME280;13851;43.434;28.338;2023-04-10T12:04:16;99820.88;;;18.05;100.00
26087;BME280;13851;43.434;28.338;2023-04-10T12:06:46;99819.19;;;18.23;100.00
26087;BME280;13851;43.434;28.338;2023-04-10T12:09:13;99789.16;;;18.01;100.00
26087;BME280;13851;43.434;28.338;2023-04-10T12:11:48;99784.41;;;18.08;100.00
26087;BME280;13851;43.434;28.338;2023-04-10T12:14:15;99756.94;;;17.88;100.00
26087;BME280;13851;43.434;28.338;2023-04-10T12:16:40;99797.03;;;18.04;100.00
26087;BME280;13851;43.434;28.338;2023-04-10T12:19:06;99865.56;;;18.15;100.00
26087;BME280;13851;43.434;28.338;2023-04-10T12:21:34;99758.22;;;17.86;100.00
26087;BME280;13851;43.434;28.338;2023-04-10T12:24:00;99818.25;;;18.29;100.00
26087;BME280;13851;43.434;28.338;2023-04-10T12:26:26;99719.84;;;17.71;100.00
26087;BME280;13851;43.434;28.338;2023-04-10T12:28:53;99810.25;;;18.21;100.00
26087;BME280;13851;43.434;28.338;2023-04-10T12:31:29;99784.00;;;18.05;100.00
26087;BME280;13851;43.434;28.338;2023-04-10T12:33:56;99601.66;;;16.73;100.00
26087;BME280;13851;43.434;28.338;2023-04-10T12:36:26;99774.66;;;17.87;100.00
26087;BME280;13851;43.434;28.338;2023-04-10T12:38:55;99794.34;;;17.98;100.00
26087;BME280;13851;43.434;28.338;2023-04-10T12:41:22;99704.91;;;17.54;100.00
26087;BME280;13851;43.434;28.338;2023-04-10T12:43:50;99454.28;;;15.86;100.00
26087;BME280;13851;43.434;28.338;2023-04-10T12:46:25;99554.22;;;16.33;100.00
26087;BME280;13851;43.434;28.338;2023-04-10T12:48:51;99754.75;;;17.35;100.00
26087;BME280;13851;43.434;28.338;2023-04-10T12:51:17;99625.59;;;16.61;100.00
26087;BME280;13851;43.434;28.338;2023-04-10T12:53:45;99743.44;;;17.37;100.00
26087;BME280;13851;43.434;28.338;2023-04-10T12:56:11;99755.03;;;17.27;100.00
26087;BME280;13851;43.434;28.338;2023-04-10T12:58:38;99750.63;;;17.20;100.00
26087;BME280;13851;43.434;28.338;2023-04-10T13:01:05;99656.69;;;16.56;100.00
26087;BME280;13851;43.434;28.338;2023-04-10T13:03:37;99469.44;;;15.20;100.00
26087;BME280;13851;43.434;28.338;2023-04-10T13:06:06;99731.00;;;16.78;100.00
26087;BME280;13851;43.434;28.338;2023-04-10T13:08:33;99748.59;;;16.90;100.00
26087;BME280;13851;43.434;28.338;2023-04-10T13:10:59;99751.38;;;16.83;100.00
26087;BME280;13851;43.434;28.338;2023-04-10T13:13:33;99400.78;;;14.67;100.00
26087;BME280;13851;43.434;28.338;2023-04-10T13:15:58;99715.94;;;16.42;100.00